»·PEaware :: SWA549 KRNO-KLAS

SWA549 :: KRNO-KLAS

FLIGHT INFORMATION

Flight Status: Arrived
Operator:
Southwest Airlines
More flights by this operator :: More flights under this callsign
Pilot: Brian A. (9771)
Aircraft: BOEING 737-800
(B738)
More flights by this aircraft type
Origin: KRNO Reno/Tahoe Intl
United States
Destination: KLAS McCarran Intl
United States
More flights between these airports :: More routes between these airports
Route: + ZEFFR6 PESKE LIDAT J92 BTY SUNST4
File this flight plan on PilotEdge
Remarks:
Altitude:
(Current/Filed)
31,000ft
Speed:
(Current/Filed)
450kts
Departed: 01-Jan-18 03:40 PM
Arrived: 01-Jan-18 04:34 PM
Distance/Time
Traveled:
300nm/0:53
Distance/Time
To Go:
Arrived

Flight Plot

Page will automatically refresh every two minutes.

Flight plan parsing failed; only flown route is shown


Map Options




Map Legend


Flown Route
Filed Route
Departure Airport
Arrival Airport
Navaid (VOR, NDB)
Fix

Horizontal Profiles

Position Reports

Time Latitude Longitude Heading Altitude Ground
Speed
01-Jan-18 15:23 39.505105 -119.772846 0 4422ft 0kts
01-Jan-18 15:24 39.505105 -119.772846 0 4423ft 0kts
01-Jan-18 15:25 39.505105 -119.772846 0 4423ft 0kts
01-Jan-18 15:26 39.505105 -119.772846 0 4423ft 0kts
01-Jan-18 15:27 39.505105 -119.772846 0 4423ft 0kts
01-Jan-18 15:28 39.505105 -119.772846 0 4423ft 0kts
01-Jan-18 15:29 39.505105 -119.772846 0 4423ft 0kts
01-Jan-18 15:30 39.505105 -119.772846 0 4423ft 0kts
01-Jan-18 15:31 39.505105 -119.772846 0 4423ft 0kts
01-Jan-18 15:32 39.505105 -119.772846 0 4423ft 0kts
01-Jan-18 15:33 39.505105 -119.772846 0 4423ft 0kts
01-Jan-18 15:34 39.505105 -119.772846 0 4423ft 0kts
01-Jan-18 15:35 39.505105 -119.772846 0 4423ft 0kts
01-Jan-18 15:36 39.505105 -119.772846 0 4423ft 0kts
01-Jan-18 15:37 39.505105 -119.772846 0 4423ft 0kts
01-Jan-18 15:38 39.504837 -119.772846 0 4423ft 2kts
01-Jan-18 15:39 39.504299 -119.773045 41 4423ft 0kts
01-Jan-18 15:40 39.504299 -119.773045 41 4423ft 0kts
01-Jan-18 15:41 39.504299 -119.773045 41 4423ft 0kts
01-Jan-18 15:42 39.504393 -119.771020 80 4423ft 12kts
01-Jan-18 15:43 39.507958 -119.770749 4 4423ft 20kts
01-Jan-18 15:44 39.511791 -119.770677 358 4423ft 7kts
01-Jan-18 15:45 39.513256 -119.769208 164 4423ft 19kts
01-Jan-18 15:46 39.502736 -119.769251 182 4423ft 126kts
01-Jan-18 15:47 39.455769 -119.767117 177 6275ft 178kts
01-Jan-18 15:48 39.394765 -119.764053 177 7478ft 259kts
01-Jan-18 15:49 39.322602 -119.757826 157 10649ft 266kts
01-Jan-18 15:50 39.264095 -119.688086 133 12735ft 323kts
01-Jan-18 15:51 39.197212 -119.592683 132 14559ft 381kts
01-Jan-18 15:52 39.123000 -119.490262 136 17341ft 402kts
01-Jan-18 15:53 39.039569 -119.388432 137 19794ft 423kts
01-Jan-18 15:54 38.952815 -119.281002 137 21999ft 443kts
01-Jan-18 15:55 38.861909 -119.168979 138 23971ft 460kts
01-Jan-18 15:56 38.767958 -119.053532 137 25750ft 476kts
01-Jan-18 15:57 38.675579 -118.928232 135 27335ft 491kts
01-Jan-18 15:58 38.580467 -118.799043 135 28888ft 500kts
01-Jan-18 15:59 38.485029 -118.669736 135 30721ft 499kts
01-Jan-18 16:00 38.389220 -118.540500 135 31376ft 503kts
01-Jan-18 16:01 38.293068 -118.411568 135 31375ft 500kts
01-Jan-18 16:02 38.197110 -118.283486 136 31381ft 500kts
01-Jan-18 16:03 38.100620 -118.155233 136 31363ft 501kts
01-Jan-18 16:04 38.004249 -118.027661 136 31341ft 501kts
01-Jan-18 16:05 37.907782 -117.900473 136 31334ft 501kts
01-Jan-18 16:06 37.810844 -117.773175 136 31332ft 501kts
01-Jan-18 16:07 37.714134 -117.646676 136 31333ft 500kts
01-Jan-18 16:08 37.617342 -117.520237 136 31334ft 502kts
01-Jan-18 16:09 37.519738 -117.393666 137 31338ft 502kts
01-Jan-18 16:10 37.420564 -117.270740 144 31337ft 494kts
01-Jan-18 16:11 37.309076 -117.174938 149 31320ft 482kts
01-Jan-18 16:12 37.197839 -117.081386 149 31306ft 482kts
01-Jan-18 16:13 37.089438 -116.989885 149 29654ft 462kts
01-Jan-18 16:14 36.983973 -116.900915 149 27708ft 451kts
01-Jan-18 16:15 36.880858 -116.814629 149 25787ft 442kts
01-Jan-18 16:16 36.783254 -116.723582 136 24339ft 426kts
01-Jan-18 16:17 36.709851 -116.619162 132 24271ft 376kts
01-Jan-18 16:18 36.644045 -116.524600 132 22779ft 373kts
01-Jan-18 16:19 36.571043 -116.420752 132 21619ft 418kts
01-Jan-18 16:20 36.494507 -116.312681 132 21271ft 416kts
01-Jan-18 16:21 36.417940 -116.204892 132 20470ft 415kts
01-Jan-18 16:22 36.342616 -116.098706 131 18997ft 402kts
01-Jan-18 16:23 36.269307 -115.996178 131 17585ft 391kts
01-Jan-18 16:24 36.202117 -115.897805 121 16963ft 355kts
01-Jan-18 16:25 36.164187 -115.788008 109 15800ft 342kts
01-Jan-18 16:26 36.129802 -115.680086 110 14642ft 332kts
01-Jan-18 16:27 36.096062 -115.575215 110 13510ft 322kts
01-Jan-18 16:28 36.063221 -115.474062 110 12395ft 313kts
01-Jan-18 16:29 36.032530 -115.375457 102 11073ft 301kts
01-Jan-18 16:30 36.023701 -115.275662 92 9826ft 282kts
01-Jan-18 16:31 36.017210 -115.182343 93 8951ft 257kts
01-Jan-18 16:32 36.011515 -115.098896 92 8230ft 227kts
01-Jan-18 16:33 36.007122 -115.025667 92 6901ft 207kts
01-Jan-18 16:34 36.003055 -114.957844 92 5416ft 191kts
01-Jan-18 16:35 36.034507 -114.937859 333 4929ft 173kts
01-Jan-18 16:36 36.073247 -114.972330 286 4358ft 172kts
01-Jan-18 16:37 36.073780 -115.026654 270 3690ft 147kts
01-Jan-18 16:38 36.073603 -115.076815 268 2900ft 145kts
01-Jan-18 16:39 36.073616 -115.126921 268 2155ft 148kts
01-Jan-18 16:40 36.074328 -115.149700 297 2123ft 14kts
01-Jan-18 16:41 36.074361 -115.149776 297 2123ft 0kts
01-Jan-18 16:42 36.076936 -115.152277 332 2123ft 16kts
01-Jan-18 16:43 36.078191 -115.151068 18 2123ft 7kts
01-Jan-18 16:44 36.081778 -115.150130 45 2123ft 7kts
01-Jan-18 16:45 36.082532 -115.150117 293 2123ft 0kts
01-Jan-18 16:46 36.082532 -115.150117 293 2123ft 0kts
01-Jan-18 16:47 36.082532 -115.150117 293 2123ft 0kts
01-Jan-18 16:48 36.082532 -115.150117 293 2123ft 0kts
01-Jan-18 16:49 36.082532 -115.150117 293 2123ft 0kts
01-Jan-18 16:50 36.082532 -115.150117 293 2123ft 0kts

Navigation Log

Ident Type
Flight plan parsing failed, navigation log unavailable